createdAt,value
2022-12-19T00:01:16.122Z,6.85
2022-12-19T00:03:45.633Z,5.88
2022-12-19T00:06:14.431Z,3.33
2022-12-19T00:08:43.248Z,5.30
2022-12-19T00:11:14.086Z,10.13
2022-12-19T00:13:43.066Z,4.65
2022-12-19T00:16:13.292Z,5.90
2022-12-19T00:18:42.440Z,5.72
2022-12-19T00:21:12.345Z,4.13
2022-12-19T00:23:40.980Z,4.07
2022-12-19T00:26:17.563Z,5.25
2022-12-19T00:28:49.657Z,5.22
2022-12-19T00:31:19.253Z,2.42
2022-12-19T00:33:48.339Z,4.13
2022-12-19T00:36:22.660Z,4.13
2022-12-19T00:38:52.235Z,4.20
2022-12-19T00:41:24.408Z,3.83
2022-12-19T00:43:55.019Z,5.40
2022-12-19T00:46:23.696Z,8.02
2022-12-19T00:48:52.348Z,4.80
2022-12-19T00:51:21.973Z,4.25
2022-12-19T00:53:51.077Z,5.75
2022-12-19T00:56:20.798Z,3.00
2022-12-19T00:58:50.762Z,4.75
2022-12-19T01:01:20.228Z,4.63
2022-12-19T01:04:25.969Z,6.72
2022-12-19T01:06:38.454Z,2.47
2022-12-19T01:09:07.752Z,3.10
2022-12-19T01:11:53.800Z,5.47
2022-12-19T01:14:23.904Z,4.35
2022-12-19T01:16:52.755Z,2.97
2022-12-19T01:19:21.398Z,5.60
2022-12-19T01:21:50.239Z,6.47
2022-12-19T01:24:19.212Z,2.05
2022-12-19T01:26:51.510Z,6.32
2022-12-19T01:29:20.164Z,6.07
2022-12-19T01:31:51.298Z,4.20
2022-12-19T01:34:19.985Z,2.60
2022-12-19T01:36:49.507Z,4.97
2022-12-19T01:39:18.237Z,4.50
2022-12-19T01:41:46.836Z,2.58
2022-12-19T01:44:15.439Z,7.30
2022-12-19T01:46:47.329Z,4.38
2022-12-19T01:49:22.075Z,4.55
2022-12-19T01:51:54.556Z,3.58
2022-12-19T01:54:24.519Z,5.47
2022-12-19T01:56:55.190Z,4.78
2022-12-19T01:59:26.865Z,4.55
2022-12-19T02:01:58.636Z,7.72
2022-12-19T02:04:32.235Z,4.38
2022-12-19T02:07:08.678Z,5.78
2022-12-19T02:09:46.870Z,4.35
2022-12-19T02:12:16.333Z,4.78
2022-12-19T02:14:45.236Z,3.17
2022-12-19T02:17:16.552Z,5.90
2022-12-19T02:20:10.471Z,4.85
2022-12-19T02:22:46.930Z,4.65
2022-12-19T02:25:27.826Z,4.35
2022-12-19T02:28:22.582Z,4.80
2022-12-19T02:30:56.932Z,5.25
2022-12-19T02:33:33.718Z,3.97
2022-12-19T02:36:05.832Z,5.80
2022-12-19T02:38:38.499Z,3.88
2022-12-19T02:41:09.923Z,6.40
2022-12-19T02:43:41.885Z,3.83
2022-12-19T02:46:13.563Z,6.10
2022-12-19T02:48:43.321Z,7.97
2022-12-19T02:51:12.101Z,4.43
2022-12-19T02:53:41.136Z,4.95
2022-12-19T02:56:17.571Z,3.53
2022-12-19T02:58:54.621Z,5.82
2022-12-19T03:01:33.488Z,5.30
2022-12-19T03:04:08.224Z,4.75
2022-12-19T03:06:42.773Z,4.65
2022-12-19T03:09:17.288Z,3.20
2022-12-19T03:11:48.461Z,6.07
2022-12-19T03:14:19.474Z,5.55
2022-12-19T03:16:50.076Z,6.20
2022-12-19T03:19:18.904Z,3.83
2022-12-19T03:21:48.388Z,7.88
2022-12-19T03:24:18.177Z,6.38
2022-12-19T03:26:48.852Z,4.72
2022-12-19T03:29:19.182Z,5.90
2022-12-19T03:31:48.519Z,7.60
2022-12-19T03:34:20.300Z,4.20
2022-12-19T03:36:50.042Z,7.47
2022-12-19T03:39:19.732Z,6.57
2022-12-19T03:42:06.985Z,4.75
2022-12-19T03:44:37.390Z,4.97
2022-12-19T03:47:08.929Z,2.50
2022-12-19T03:49:39.688Z,6.07
2022-12-19T03:52:18.818Z,6.70
2022-12-19T03:54:51.674Z,8.43
2022-12-19T03:57:22.993Z,2.83
2022-12-19T03:59:57.277Z,4.53
2022-12-19T04:02:26.457Z,6.13
2022-12-19T04:04:58.333Z,5.32
2022-12-19T04:07:27.158Z,3.35
2022-12-19T04:09:57.801Z,3.10
2022-12-19T04:12:28.270Z,3.55
2022-12-19T04:14:57.013Z,3.45
2022-12-19T04:17:29.093Z,2.28
2022-12-19T04:20:02.138Z,3.75
2022-12-19T04:22:33.841Z,4.22
2022-12-19T04:25:09.096Z,5.20
2022-12-19T04:27:39.017Z,4.53
2022-12-19T04:30:11.857Z,5.82
2022-12-19T04:32:41.448Z,4.25
2022-12-19T04:35:12.194Z,3.25
2022-12-19T04:37:41.225Z,6.03
2022-12-19T04:40:10.475Z,5.07
2022-12-19T04:42:39.129Z,7.43
2022-12-19T04:45:08.446Z,7.32
2022-12-19T04:47:37.247Z,7.93
2022-12-19T04:50:06.157Z,6.18
2022-12-19T04:52:36.329Z,7.60
2022-12-19T04:55:05.033Z,6.60
2022-12-19T04:57:33.969Z,8.48
2022-12-19T05:00:03.981Z,6.68
2022-12-19T05:02:33.121Z,9.68
2022-12-19T05:05:01.956Z,9.93
2022-12-19T05:07:30.649Z,8.70
2022-12-19T05:10:04.064Z,7.90
2022-12-19T05:12:32.621Z,7.65
2022-12-19T05:15:01.243Z,9.95
2022-12-19T05:17:29.925Z,11.52
2022-12-19T05:19:58.575Z,8.88
2022-12-19T05:22:27.275Z,11.38
2022-12-19T05:24:55.958Z,10.02
2022-12-19T05:27:26.501Z,14.02
2022-12-19T05:29:55.104Z,13.75
2022-12-19T05:32:23.932Z,15.95
2022-12-19T05:34:52.840Z,11.40
2022-12-19T05:37:21.461Z,15.05
2022-12-19T05:39:50.119Z,14.20
2022-12-19T05:42:18.809Z,14.88
2022-12-19T05:44:49.489Z,14.20
2022-12-19T05:47:18.184Z,12.68
2022-12-19T05:49:46.904Z,16.60
2022-12-19T05:52:15.709Z,12.27
2022-12-19T05:54:44.365Z,11.93
2022-12-19T05:57:13.172Z,12.35
2022-12-19T05:59:42.312Z,13.95
2022-12-19T06:02:12.510Z,19.00
2022-12-19T06:04:41.241Z,15.02
2022-12-19T06:07:09.960Z,14.63
2022-12-19T06:09:38.543Z,15.20
2022-12-19T06:12:07.387Z,13.35
2022-12-19T06:14:36.244Z,14.48
2022-12-19T06:17:05.240Z,13.48
2022-12-19T06:19:35.699Z,14.23
2022-12-19T06:22:05.245Z,14.55
2022-12-19T06:24:34.009Z,13.77
2022-12-19T06:27:05.492Z,14.75
2022-12-19T06:29:34.912Z,13.23
2022-12-19T06:32:03.707Z,11.32
2022-12-19T06:35:02.734Z,17.17
2022-12-19T06:37:22.349Z,15.52
2022-12-19T06:39:52.483Z,16.73
2022-12-19T06:42:23.349Z,13.60
2022-12-19T06:44:52.515Z,13.52
2022-12-19T06:47:21.547Z,17.13
2022-12-19T06:49:50.493Z,13.50
2022-12-19T06:52:19.593Z,16.08
2022-12-19T06:54:50.118Z,14.18
2022-12-19T06:57:18.756Z,15.07
2022-12-19T06:59:47.431Z,13.57
2022-12-19T07:02:20.903Z,13.45
2022-12-19T07:04:52.451Z,10.63
2022-12-19T07:07:21.458Z,13.70
2022-12-19T07:09:51.801Z,13.95
2022-12-19T07:12:20.559Z,12.45
2022-12-19T07:14:53.301Z,14.82
2022-12-19T07:17:23.012Z,12.55
2022-12-19T07:19:51.788Z,13.65
2022-12-19T07:22:20.731Z,11.80
2022-12-19T07:24:49.610Z,12.90
2022-12-19T07:27:19.636Z,14.52
2022-12-19T07:29:48.343Z,12.88
2022-12-19T07:32:16.976Z,11.77
2022-12-19T07:34:45.703Z,13.68
2022-12-19T07:37:14.432Z,16.70
2022-12-19T07:39:43.223Z,10.88
2022-12-19T07:42:11.932Z,13.73
2022-12-19T07:44:42.221Z,15.40
2022-12-19T07:47:11.115Z,13.82
2022-12-19T07:49:39.882Z,12.80
2022-12-19T07:52:09.681Z,13.52
2022-12-19T07:54:38.452Z,11.30
2022-12-19T07:57:07.133Z,11.65
2022-12-19T07:59:39.335Z,12.45
2022-12-19T08:02:10.165Z,10.43
2022-12-19T08:04:38.959Z,10.45
2022-12-19T08:07:07.647Z,8.40
2022-12-19T08:09:36.426Z,10.25
2022-12-19T08:12:05.556Z,9.00
2022-12-19T08:14:34.218Z,8.88
2022-12-19T08:19:53.211Z,8.25
2022-12-19T08:22:22.919Z,7.72
2022-12-19T08:24:51.964Z,6.85
2022-12-19T08:27:20.569Z,11.13
2022-12-19T08:29:49.277Z,6.15
2022-12-19T08:32:21.111Z,7.70
2022-12-19T08:34:50.070Z,6.00
2022-12-19T08:37:20.222Z,9.30
2022-12-19T08:39:48.920Z,5.35
2022-12-19T08:42:17.558Z,6.32
2022-12-19T08:44:46.253Z,4.68
2022-12-19T08:47:15.011Z,7.63
2022-12-19T08:49:43.795Z,8.40
2022-12-19T08:52:12.511Z,5.05
2022-12-19T08:54:42.566Z,5.85
2022-12-19T08:57:11.380Z,7.22
2022-12-19T08:59:40.071Z,5.20
2022-12-19T09:02:09.698Z,5.07
2022-12-19T09:06:02.511Z,4.40
2022-12-19T09:07:27.469Z,4.35
2022-12-19T09:09:57.463Z,7.00
2022-12-19T09:12:26.243Z,5.75
2022-12-19T09:14:55.103Z,5.55
2022-12-19T09:17:23.773Z,7.88
2022-12-19T09:19:52.495Z,5.57
2022-12-19T09:22:21.137Z,5.45
2022-12-19T09:24:57.792Z,8.43
2022-12-19T09:27:27.123Z,8.07
2022-12-19T09:29:55.817Z,8.18
2022-12-19T09:32:24.559Z,10.68
2022-12-19T09:34:53.205Z,7.60
2022-12-19T09:37:22.158Z,9.32
2022-12-19T09:39:51.051Z,9.10
2022-12-19T09:42:40.710Z,12.20
2022-12-19T09:45:37.394Z,9.20
2022-12-19T09:48:06.143Z,11.00
2022-12-19T09:50:44.444Z,8.27
2022-12-19T09:53:16.824Z,17.60
2022-12-19T09:55:46.322Z,12.30
2022-12-19T09:58:22.046Z,12.05
2022-12-19T10:00:56.795Z,8.02
2022-12-19T10:03:32.254Z,11.63
2022-12-19T10:07:16.302Z,13.43
2022-12-19T10:10:14.595Z,10.75
2022-12-19T10:12:38.175Z,14.23
2022-12-19T10:14:53.825Z,11.18
2022-12-19T10:17:28.047Z,13.25
2022-12-19T10:20:05.473Z,13.02
2022-12-19T10:22:39.321Z,13.38
2022-12-19T10:25:20.424Z,13.35
2022-12-19T10:27:58.455Z,13.32
2022-12-19T10:30:31.742Z,13.60
2022-12-19T10:33:04.826Z,15.25
2022-12-19T10:35:37.492Z,16.65
2022-12-19T10:38:11.811Z,15.27
2022-12-19T10:40:44.339Z,13.38
2022-12-19T10:43:22.856Z,13.40
2022-12-19T10:46:03.457Z,13.00
2022-12-19T10:48:32.294Z,14.13
2022-12-19T10:51:06.708Z,12.43
2022-12-19T10:53:36.032Z,12.40
2022-12-19T10:56:13.410Z,13.90
2022-12-19T10:58:45.643Z,14.18
2022-12-19T11:01:17.193Z,13.45
2022-12-19T11:03:47.550Z,16.23
2022-12-19T11:06:34.916Z,16.83
2022-12-19T11:09:19.099Z,13.65
2022-12-19T11:15:44.747Z,13.00
2022-12-19T11:19:50.052Z,12.55
2022-12-19T11:24:04.554Z,16.85
2022-12-19T11:29:32.624Z,14.25
2022-12-19T11:30:09.084Z,15.63
2022-12-19T11:30:38.644Z,14.73
2022-12-19T11:30:39.549Z,15.48
2022-12-19T11:34:35.679Z,11.77
2022-12-19T11:37:10.785Z,14.10
2022-12-19T11:39:50.203Z,18.30
2022-12-19T11:42:24.636Z,14.80
2022-12-19T11:44:57.280Z,12.90
2022-12-19T11:47:32.564Z,12.68
2022-12-19T11:50:04.935Z,13.00
2022-12-19T11:53:03.909Z,13.80
2022-12-19T11:55:29.551Z,12.40
2022-12-19T11:57:59.333Z,13.55
2022-12-19T12:00:28.066Z,12.35
2022-12-19T12:03:09.923Z,13.50
2022-12-19T12:05:47.239Z,12.40
2022-12-19T12:09:32.900Z,16.52
2022-12-19T12:16:15.942Z,12.82
2022-12-19T12:24:58.850Z,13.23
2022-12-19T12:31:05.471Z,15.63
2022-12-19T12:31:11.208Z,14.40
2022-12-19T12:31:11.744Z,12.65
2022-12-19T12:31:50.066Z,12.98
2022-12-19T12:32:02.524Z,15.60
2022-12-19T12:35:31.527Z,14.05
2022-12-19T12:35:52.286Z,10.73
2022-12-19T12:40:51.152Z,14.13
2022-12-19T12:43:26.529Z,12.80
2022-12-19T12:45:55.219Z,14.80
2022-12-19T12:48:26.705Z,14.00
2022-12-19T12:50:57.853Z,14.30
2022-12-19T12:53:29.825Z,14.30
2022-12-19T12:56:01.111Z,14.52
2022-12-19T12:58:46.386Z,14.23
2022-12-19T13:01:18.827Z,17.42
2022-12-19T13:03:54.762Z,20.02
2022-12-19T13:06:27.261Z,16.25
2022-12-19T13:08:58.435Z,16.30
2022-12-19T13:11:56.975Z,16.83
2022-12-19T13:14:46.036Z,17.08
2022-12-19T13:17:15.349Z,16.02
2022-12-19T13:19:54.786Z,14.98
2022-12-19T13:22:38.801Z,21.15
2022-12-19T13:25:22.299Z,16.25
2022-12-19T13:27:57.645Z,18.13
2022-12-19T13:30:27.446Z,15.65
2022-12-19T13:33:10.162Z,19.73
2022-12-19T13:36:49.304Z,17.75
2022-12-19T13:39:56.170Z,17.67
2022-12-19T13:41:48.508Z,16.63
2022-12-19T13:44:22.578Z,16.45
2022-12-19T13:46:51.750Z,17.42
2022-12-19T13:49:21.815Z,15.30
2022-12-19T13:51:51.614Z,17.58
2022-12-19T13:54:22.870Z,17.90
2022-12-19T13:56:52.364Z,18.95
2022-12-19T13:59:23.270Z,15.77
2022-12-19T14:01:52.798Z,16.67
2022-12-19T14:04:28.268Z,18.83
2022-12-19T14:06:59.190Z,15.60
2022-12-19T14:11:29.852Z,14.70
2022-12-19T14:13:58.196Z,16.98
2022-12-19T14:15:29.513Z,15.07
2022-12-19T14:17:58.318Z,18.27
2022-12-19T14:22:01.820Z,13.98
2022-12-19T14:23:43.067Z,15.20
2022-12-19T14:28:24.936Z,18.98
2022-12-19T14:29:05.296Z,17.80
2022-12-19T14:31:36.238Z,15.32
2022-12-19T14:34:35.562Z,15.98
2022-12-19T14:36:54.323Z,15.82
2022-12-19T14:39:29.203Z,12.80
2022-12-19T14:42:31.610Z,15.45
2022-12-19T14:54:03.000Z,15.63
2022-12-19T14:54:07.519Z,14.07
2022-12-19T14:54:32.368Z,17.17
2022-12-19T14:57:07.428Z,17.05
2022-12-19T14:59:37.761Z,14.60
2022-12-19T15:02:16.527Z,17.92
2022-12-19T15:05:04.757Z,13.40
2022-12-19T15:07:34.568Z,15.70
2022-12-19T15:11:08.832Z,15.80
2022-12-19T15:14:54.258Z,17.90
2022-12-19T15:16:05.235Z,14.15
2022-12-19T15:18:41.090Z,15.18
2022-12-19T15:21:13.503Z,15.95
2022-12-19T15:23:42.303Z,20.08
2022-12-19T15:26:14.166Z,15.90
2022-12-19T15:28:44.651Z,20.38
2022-12-19T15:31:19.730Z,19.17
2022-12-19T15:34:14.894Z,13.80
2022-12-19T15:36:38.829Z,19.50
2022-12-19T15:39:07.480Z,18.50
2022-12-19T15:41:36.443Z,17.73
2022-12-19T15:44:09.151Z,17.58
2022-12-19T15:46:41.407Z,14.65
2022-12-19T15:49:16.511Z,20.40
2022-12-19T15:51:46.668Z,16.25
2022-12-19T15:57:06.472Z,17.95
2022-12-19T15:59:38.265Z,14.50
2022-12-19T16:02:16.934Z,14.30
2022-12-19T16:04:46.391Z,15.85
2022-12-19T16:07:18.264Z,13.65
2022-12-19T16:09:47.024Z,20.00
2022-12-19T16:12:16.998Z,18.00
2022-12-19T16:14:45.900Z,21.35
2022-12-19T16:17:16.682Z,18.98
2022-12-19T16:19:45.725Z,14.57
2022-12-19T16:22:19.234Z,18.52
2022-12-19T16:24:47.941Z,17.67
2022-12-19T16:27:20.513Z,20.85
2022-12-19T16:29:49.246Z,16.98
2022-12-19T16:32:18.081Z,18.17
2022-12-19T16:34:46.844Z,20.67
2022-12-19T16:37:15.579Z,22.98
2022-12-19T16:39:45.587Z,17.85
2022-12-19T16:42:17.048Z,16.48
2022-12-19T16:44:46.725Z,20.98
2022-12-19T16:47:16.234Z,29.45
2022-12-19T16:49:45.197Z,21.65
2022-12-19T16:52:14.079Z,20.33
2022-12-19T16:54:42.763Z,22.88
2022-12-19T16:57:19.723Z,16.27
2022-12-19T16:59:48.496Z,17.98
2022-12-19T17:02:27.283Z,17.77
2022-12-19T17:04:56.668Z,20.20
2022-12-19T17:07:25.450Z,15.75
2022-12-19T17:09:54.230Z,18.08
2022-12-19T17:12:25.041Z,19.63
2022-12-19T17:14:53.784Z,19.33
2022-12-19T17:17:22.609Z,19.45
2022-12-19T17:19:51.488Z,18.20
2022-12-19T17:22:21.481Z,20.20
2022-12-19T17:24:51.065Z,19.15
2022-12-19T17:27:21.057Z,17.10
2022-12-19T17:29:51.156Z,17.67
2022-12-19T17:32:24.044Z,17.95
2022-12-19T17:34:53.841Z,19.55
2022-12-19T17:37:23.035Z,26.55
2022-12-19T17:39:51.957Z,25.38
2022-12-19T17:42:23.088Z,23.63
2022-12-19T17:44:53.341Z,24.33
2022-12-19T17:47:22.337Z,23.33
2022-12-19T17:49:51.930Z,19.35
2022-12-19T17:52:21.933Z,20.50
2022-12-19T17:54:50.564Z,21.05
2022-12-19T17:57:19.565Z,21.30
2022-12-19T17:59:48.276Z,20.38
2022-12-19T18:02:22.245Z,22.95
2022-12-19T18:04:51.805Z,20.70
2022-12-19T18:07:20.435Z,20.00
2022-12-19T18:09:50.511Z,21.92
2022-12-19T18:12:19.499Z,20.40
2022-12-19T18:14:48.343Z,19.73
2022-12-19T18:17:21.956Z,22.83
2022-12-19T18:19:51.991Z,19.42
2022-12-19T18:22:20.716Z,18.38
2022-12-19T18:24:49.639Z,19.83
2022-12-19T18:27:18.395Z,20.70
2022-12-19T18:29:47.022Z,22.83
2022-12-19T18:32:18.887Z,19.73
2022-12-19T18:34:47.625Z,22.50
2022-12-19T18:37:17.885Z,20.00
2022-12-19T18:39:46.565Z,21.73
2022-12-19T18:42:20.576Z,22.30
2022-12-19T18:44:49.364Z,16.10
2022-12-19T18:47:21.404Z,19.77
2022-12-19T18:49:51.084Z,17.98
2022-12-19T18:52:21.252Z,18.20
2022-12-19T18:54:49.984Z,21.88
2022-12-19T18:57:18.658Z,22.15
2022-12-19T18:59:48.699Z,19.85
2022-12-19T19:02:26.207Z,17.10
2022-12-19T19:04:55.932Z,23.55
2022-12-19T19:07:26.035Z,24.02
2022-12-19T19:09:54.713Z,15.85
2022-12-19T19:12:37.754Z,19.50
2022-12-19T19:15:07.386Z,18.65
2022-12-19T19:17:36.096Z,18.88
2022-12-19T19:20:05.121Z,19.38
2022-12-19T19:22:35.178Z,21.77
2022-12-19T19:25:03.847Z,21.30
2022-12-19T19:27:32.424Z,24.50
2022-12-19T19:30:01.043Z,20.90
2022-12-19T19:32:29.781Z,21.42
2022-12-19T19:34:58.462Z,22.40
2022-12-19T19:37:27.242Z,24.85
2022-12-19T19:39:57.253Z,22.55
2022-12-19T19:42:25.952Z,23.77
2022-12-19T19:44:54.568Z,17.88
2022-12-19T19:47:26.644Z,24.20
2022-12-19T19:49:56.721Z,23.63
2022-12-19T19:52:25.354Z,18.88
2022-12-19T19:54:53.994Z,24.08
2022-12-19T19:57:23.999Z,20.67
2022-12-19T19:59:52.878Z,21.58
2022-12-19T20:02:21.670Z,21.75
2022-12-19T20:04:50.491Z,19.95
2022-12-19T20:07:19.578Z,19.88
2022-12-19T20:09:48.223Z,18.73
2022-12-19T20:12:16.839Z,22.02
2022-12-19T20:14:46.923Z,23.73
2022-12-19T20:17:15.537Z,19.13
2022-12-19T20:19:44.261Z,19.67
2022-12-19T20:22:12.927Z,17.80
2022-12-19T20:24:41.641Z,19.77
2022-12-19T20:27:10.372Z,21.48
2022-12-19T20:29:39.478Z,18.70
2022-12-19T20:32:10.167Z,20.77
2022-12-19T20:34:38.772Z,20.33
2022-12-19T20:37:07.454Z,17.70
2022-12-19T20:39:36.544Z,18.35
2022-12-19T20:42:06.563Z,18.25
2022-12-19T20:44:35.543Z,18.08
2022-12-19T20:47:04.287Z,21.70
2022-12-19T20:49:34.442Z,16.20
2022-12-19T20:52:03.586Z,13.80
2022-12-19T20:54:32.234Z,16.95
2022-12-19T20:57:00.897Z,12.70
2022-12-19T20:59:29.505Z,14.95
2022-12-19T21:02:00.525Z,15.48
2022-12-19T21:04:30.862Z,13.68
2022-12-19T21:07:01.030Z,15.23
2022-12-19T21:09:29.746Z,17.58
2022-12-19T21:11:58.409Z,16.25
2022-12-19T21:14:27.068Z,14.02
2022-12-19T21:16:56.013Z,15.77
2022-12-19T21:19:24.711Z,13.40
2022-12-19T21:21:53.527Z,15.00
2022-12-19T21:24:23.645Z,13.63
2022-12-19T21:26:57.747Z,15.38
2022-12-19T21:29:26.901Z,15.48
2022-12-19T21:31:55.569Z,13.35
2022-12-19T21:34:24.402Z,17.00
2022-12-19T21:36:53.022Z,18.23
2022-12-19T21:39:25.540Z,16.98
2022-12-19T21:41:54.361Z,15.93
2022-12-19T21:44:23.026Z,13.95
2022-12-19T21:46:51.823Z,17.77
2022-12-19T21:49:21.079Z,16.30
2022-12-19T21:51:49.677Z,18.38
2022-12-19T21:54:18.380Z,16.38
2022-12-19T21:56:48.428Z,15.63
2022-12-19T21:59:17.840Z,15.80
2022-12-19T22:01:47.167Z,17.17
2022-12-19T22:04:17.739Z,16.13
2022-12-19T22:06:46.659Z,12.68
2022-12-19T22:09:16.491Z,16.45
2022-12-19T22:11:45.459Z,11.55
2022-12-19T22:14:16.386Z,14.52
2022-12-19T22:16:45.267Z,14.15
2022-12-19T22:19:15.581Z,11.43
2022-12-19T22:21:44.301Z,14.13
2022-12-19T22:24:13.895Z,12.52
2022-12-19T22:26:43.101Z,15.90
2022-12-19T22:29:12.263Z,12.93
2022-12-19T22:31:42.412Z,12.32
2022-12-19T22:34:12.745Z,11.98
2022-12-19T22:36:42.410Z,12.52
2022-12-19T22:39:12.560Z,11.25
2022-12-19T22:41:41.810Z,12.73
2022-12-19T22:44:10.841Z,10.82
2022-12-19T22:46:40.820Z,10.40
2022-12-19T22:49:11.058Z,11.20
2022-12-19T22:51:39.875Z,10.55
2022-12-19T22:54:09.123Z,9.98
2022-12-19T22:56:37.866Z,10.20
2022-12-19T22:59:07.721Z,9.82
2022-12-19T23:01:38.060Z,12.85
2022-12-19T23:04:08.268Z,9.88
2022-12-19T23:06:38.723Z,10.57
2022-12-19T23:09:07.630Z,10.90
2022-12-19T23:11:38.340Z,13.05
2022-12-19T23:14:08.149Z,9.43
2022-12-19T23:16:36.951Z,10.13
2022-12-19T23:19:06.392Z,7.93
2022-12-19T23:21:35.038Z,8.82
2022-12-19T23:24:05.196Z,9.25
2022-12-19T23:26:34.879Z,10.02
2022-12-19T23:29:04.266Z,9.80
2022-12-19T23:31:33.055Z,9.43
2022-12-19T23:34:02.209Z,8.70
2022-12-19T23:39:21.293Z,8.27
2022-12-19T23:41:49.850Z,8.77
2022-12-19T23:44:18.941Z,9.00
2022-12-19T23:46:47.690Z,10.13
2022-12-19T23:49:16.744Z,9.45
2022-12-19T23:51:45.372Z,10.15
2022-12-19T23:54:13.917Z,9.50
2022-12-19T23:56:44.141Z,9.05
2022-12-19T23:59:13.076Z,9.55
